createdAt,value
2017-07-01T00:00:03.197Z,59.05
2017-07-01T00:05:03.318Z,59.14
2017-07-01T00:10:02.769Z,59.14
2017-07-01T00:15:03.059Z,59.14
2017-07-01T00:20:03.411Z,59.23
2017-07-01T00:25:02.706Z,59.33
2017-07-01T00:30:03.098Z,59.33
2017-07-01T00:35:03.477Z,59.43
2017-07-01T00:40:02.916Z,59.52
2017-07-01T00:45:03.350Z,59.62
2017-07-01T00:50:02.680Z,59.62
2017-07-01T00:55:03.045Z,59.69
2017-07-01T01:00:03.430Z,59.69
2017-07-01T01:05:02.691Z,59.88
2017-07-01T01:10:03.112Z,60.06
2017-07-01T01:15:03.442Z,60.35
2017-07-01T01:20:03.017Z,60.74
2017-07-01T01:25:03.252Z,60.83
2017-07-01T01:30:02.597Z,61.02
2017-07-01T01:35:02.903Z,61.22
2017-07-01T01:40:03.357Z,61.22
2017-07-01T01:45:02.617Z,61.6
2017-07-01T01:50:03.146Z,61.88
2017-07-01T01:55:03.538Z,61.79
2017-07-01T02:00:02.824Z,61.69
2017-07-01T02:05:03.238Z,61.6
2017-07-01T02:10:02.674Z,61.41
2017-07-01T02:15:03.053Z,61.31
2017-07-01T02:20:03.421Z,61.41
2017-07-01T02:25:02.733Z,61.6
2017-07-01T02:30:03.187Z,61.88
2017-07-01T02:35:03.532Z,62.17
2017-07-01T02:40:02.831Z,62.17
2017-07-01T02:45:03.123Z,62.17
2017-07-01T02:50:03.369Z,62.27
2017-07-01T02:55:02.653Z,62.17
2017-07-01T03:00:03.081Z,62.17
2017-07-01T03:05:03.328Z,62.27
2017-07-01T03:10:02.778Z,62.17
2017-07-01T03:15:03.098Z,62.17
2017-07-01T03:20:03.403Z,61.98
2017-07-01T03:25:02.847Z,61.79
2017-07-01T03:30:03.521Z,61.69
2017-07-01T03:35:02.834Z,61.6
2017-07-01T03:40:03.227Z,61.51
2017-07-01T03:45:03.438Z,61.51
2017-07-01T03:50:02.785Z,61.22
2017-07-01T03:55:03.103Z,61.22
2017-07-01T04:00:03.639Z,61.12
2017-07-01T04:05:02.997Z,61.12
2017-07-01T04:10:03.613Z,60.9
2017-07-01T04:15:02.829Z,60.99
2017-07-01T04:20:03.283Z,60.9
2017-07-01T04:25:02.714Z,60.9
2017-07-01T04:30:03.342Z,60.99
2017-07-01T04:35:02.668Z,60.9
2017-07-01T04:40:03.175Z,60.99
2017-07-01T04:45:03.551Z,60.99
2017-07-01T04:50:02.859Z,60.99
2017-07-01T04:55:03.255Z,61.19
2017-07-01T05:00:02.957Z,61.31
2017-07-01T05:05:03.225Z,61.22
2017-07-01T05:10:02.678Z,61.12
2017-07-01T05:15:03.390Z,61.02
2017-07-01T05:20:02.700Z,61.02
2017-07-01T05:25:03.142Z,61.02
2017-07-01T05:30:04.269Z,60.93
2017-07-01T05:35:03.574Z,60.83
2017-07-01T05:40:02.984Z,60.74
2017-07-01T05:45:03.793Z,60.74
2017-07-01T05:50:03.105Z,60.74
2017-07-01T05:55:03.392Z,60.64
2017-07-01T06:00:02.730Z,60.64
2017-07-01T06:05:03.173Z,60.64
2017-07-01T06:10:02.648Z,60.45
2017-07-01T06:15:02.952Z,60.45
2017-07-01T06:25:02.996Z,59.3
2017-07-01T06:30:03.726Z,58.83
2017-07-01T06:35:03.127Z,58.63
2017-07-01T06:40:03.466Z,58.44
2017-07-01T06:45:02.739Z,58.28
2017-07-01T06:50:03.150Z,58.28
2017-07-01T06:55:03.528Z,58.37
2017-07-01T07:00:02.840Z,58.28
2017-07-01T07:05:03.270Z,58.28
2017-07-01T07:10:02.707Z,58.18
2017-07-01T07:15:03.288Z,58.18
2017-07-01T07:20:02.670Z,58.15
2017-07-01T07:25:02.914Z,58.34
2017-07-01T07:30:04.507Z,58.34
2017-07-01T07:35:02.906Z,58.34
2017-07-01T07:40:03.379Z,58.34
2017-07-01T07:45:02.615Z,58.34
2017-07-01T07:50:03.035Z,58.28
2017-07-01T07:55:03.453Z,58.09
2017-07-01T08:00:02.817Z,57.9
2017-07-01T08:05:03.251Z,57.7
2017-07-01T08:10:02.840Z,57.61
2017-07-01T08:15:03.273Z,57.61
2017-07-01T08:20:02.831Z,57.61
2017-07-01T08:25:03.513Z,57.61
2017-07-01T08:30:03.206Z,57.7
2017-07-01T08:35:02.754Z,57.8
2017-07-01T08:40:02.588Z,57.8
2017-07-01T08:45:02.982Z,57.51
2017-07-01T08:50:03.567Z,57.35
2017-07-01T08:55:03.095Z,56.97
2017-07-01T09:00:02.653Z,56.87
2017-07-01T09:05:03.331Z,56.59
2017-07-01T09:10:03.336Z,56.49
2017-07-01T09:15:02.974Z,56.42
2017-07-01T09:20:02.927Z,56.32
2017-07-01T09:25:03.210Z,56.13
2017-07-01T09:30:03.426Z,55.94
2017-07-01T09:35:03.121Z,55.75
2017-07-01T09:40:03.228Z,55.49
2017-07-01T09:45:03.090Z,55.42
2017-07-01T09:50:03.155Z,55.71
2017-07-01T09:55:03.119Z,55.9
2017-07-01T10:00:03.567Z,56.7
2017-07-01T10:05:02.938Z,58.26
2017-07-01T10:10:02.882Z,59.22
2017-07-01T10:15:03.416Z,60.28
2017-07-01T10:20:03.103Z,60.38
2017-07-01T10:25:03.047Z,60.08
2017-07-01T10:30:03.350Z,60.57
2017-07-01T10:35:02.732Z,61.27
2017-07-01T10:40:02.789Z,61.17
2017-07-01T10:45:02.613Z,59.83
2017-07-01T10:50:02.805Z,59.73
2017-07-01T10:55:03.071Z,62.58
2017-07-01T11:00:02.865Z,64.79
2017-07-01T11:05:03.404Z,65.84
2017-07-01T11:10:03.212Z,65.27
2017-07-01T11:15:03.433Z,65.84
2017-07-01T11:20:02.916Z,65.88
2017-07-01T11:25:02.905Z,68.93
2017-07-01T11:30:02.696Z,73.49
2017-07-01T11:35:02.704Z,76.15
2017-07-01T11:40:02.996Z,74.67
2017-07-01T11:45:03.243Z,72.32
2017-07-01T11:50:02.625Z,71.55
2017-07-01T11:55:02.958Z,71.84
2017-07-01T12:00:03.272Z,72.61
2017-07-01T12:05:03.431Z,71.65
2017-07-01T12:10:02.949Z,70.72
2017-07-01T12:15:03.049Z,72.07
2017-07-01T12:20:03.093Z,73.8
2017-07-01T12:25:03.402Z,71.36
2017-07-01T12:30:02.609Z,67.68
2017-07-01T12:35:02.727Z,65.75
2017-07-01T12:40:03.070Z,65.17
2017-07-01T12:45:02.616Z,64.89
2017-07-01T12:50:03.451Z,65.27
2017-07-01T12:55:02.633Z,65.17
2017-07-01T13:00:02.813Z,65.88
2017-07-01T13:05:03.428Z,65.88
2017-07-01T13:10:03.368Z,67.9
2017-07-01T13:15:02.654Z,67.99
2017-07-01T13:20:02.599Z,70.4
2017-07-01T13:25:03.500Z,68.09
2017-07-01T13:30:02.883Z,67.8
2017-07-01T13:35:02.969Z,68.48
2017-07-01T13:40:03.120Z,69.18
2017-07-01T13:45:03.401Z,69.57
2017-07-01T13:50:03.583Z,71.69
2017-07-01T13:55:02.591Z,73.13
2017-07-01T14:00:02.870Z,73.16
2017-07-01T14:05:03.391Z,73.8
2017-07-01T14:10:02.776Z,72.36
2017-07-01T14:15:02.961Z,72.45
2017-07-01T14:20:03.403Z,76.31
2017-07-01T14:25:02.869Z,77.56
2017-07-01T14:30:03.243Z,76.88
2017-07-01T14:35:02.871Z,76.26
2017-07-01T14:40:03.355Z,74.6
2017-07-01T14:45:02.814Z,71.52
2017-07-01T14:50:03.231Z,68.15
2017-07-01T14:55:02.679Z,67.77
2017-07-01T15:00:03.067Z,67.86
2017-07-01T15:05:02.790Z,67.9
2017-07-01T15:10:03.166Z,68.96
2017-07-01T15:15:03.743Z,70.4
2017-07-01T15:20:03.279Z,72.32
2017-07-01T15:25:03.577Z,72.13
2017-07-01T15:30:02.953Z,72.8
2017-07-01T15:35:03.302Z,73.51
2017-07-01T15:40:02.749Z,73.9
2017-07-01T15:45:03.010Z,75.63
2017-07-01T15:50:03.226Z,76.21
2017-07-01T15:55:02.635Z,76.92
2017-07-01T16:00:03.338Z,78.27
2017-07-01T16:05:02.862Z,78.85
2017-07-01T16:10:02.820Z,78.85
2017-07-01T16:15:02.711Z,79.61
2017-07-01T16:20:02.780Z,81.33
2017-07-01T16:25:03.078Z,86
2017-07-01T16:30:03.217Z,85.33
2017-07-01T16:35:03.353Z,85.85
2017-07-01T16:40:02.834Z,88.55
2017-07-01T16:45:02.964Z,89.61
2017-07-01T16:50:03.084Z,89.23
2017-07-01T16:55:03.360Z,88.99
2017-07-01T17:00:02.669Z,88.12
2017-07-01T17:05:02.821Z,88.17
2017-07-01T17:10:03.262Z,87.4
2017-07-01T17:15:03.498Z,86.44
2017-07-01T17:20:02.972Z,86.63
2017-07-01T17:25:03.191Z,88.23
2017-07-01T17:30:03.035Z,87.55
2017-07-01T17:35:03.314Z,87.26
2017-07-01T17:40:03.606Z,86.21
2017-07-01T17:45:02.679Z,87.07
2017-07-01T17:50:02.840Z,86.54
2017-07-01T17:55:02.691Z,87.88
2017-07-01T18:00:03.366Z,88.27
2017-07-01T18:05:02.730Z,88.71
2017-07-01T18:10:03.470Z,88.56
2017-07-01T18:15:02.721Z,88.81
2017-07-01T18:20:02.767Z,90.34
2017-07-01T18:25:02.911Z,91.02
2017-07-01T18:30:03.128Z,91.69
2017-07-01T18:35:03.471Z,91.55
2017-07-01T18:40:02.728Z,90.88
2017-07-01T18:45:02.714Z,90.16
2017-07-01T18:50:02.883Z,90.45
2017-07-01T18:55:02.914Z,90.06
2017-07-01T19:00:03.169Z,90.69
2017-07-01T19:05:02.684Z,90.31
2017-07-01T19:10:03.552Z,89.54
2017-07-01T19:15:02.685Z,88.67
2017-07-01T19:20:03.513Z,86.99
2017-07-01T19:25:03.535Z,85.75
2017-07-01T19:30:02.783Z,84.4
2017-07-01T19:35:02.740Z,84.36
2017-07-01T19:40:02.932Z,85.41
2017-07-01T19:45:03.358Z,86.91
2017-07-01T19:50:02.907Z,87.19
2017-07-01T19:55:03.191Z,86.96
2017-07-01T20:00:03.502Z,86.19
2017-07-01T20:05:03.156Z,84.85
2017-07-01T20:10:02.658Z,83.75
2017-07-01T20:15:02.790Z,82.51
2017-07-01T20:20:02.937Z,81.07
2017-07-01T20:25:02.748Z,78.15
2017-07-01T20:30:03.079Z,76.81
2017-07-01T20:35:03.479Z,75.9
2017-07-01T20:40:02.722Z,74.85
2017-07-01T20:45:02.808Z,74.08
2017-07-01T20:50:03.013Z,73.41
2017-07-01T20:55:03.230Z,72.74
2017-07-01T21:00:03.443Z,72.45
2017-07-01T21:05:03.315Z,72.17
2017-07-01T21:10:03.584Z,71.5
2017-07-01T21:15:03.234Z,70.89
2017-07-01T21:20:03.358Z,70.41
2017-07-01T21:25:03.028Z,69.93
2017-07-01T21:30:03.029Z,69.26
2017-07-01T21:35:02.741Z,68.87
2017-07-01T21:40:03.405Z,68.59
2017-07-01T21:45:02.875Z,68.3
2017-07-01T21:50:03.385Z,68.01
2017-07-01T21:55:02.814Z,67.34
2017-07-01T22:00:03.275Z,66.83
2017-07-01T22:05:02.718Z,66.64
2017-07-01T22:10:03.093Z,66.25
2017-07-01T22:15:03.456Z,65.78
2017-07-01T22:20:02.786Z,65.3
2017-07-01T22:25:03.221Z,64.92
2017-07-01T22:30:02.693Z,64.53
2017-07-01T22:35:03.094Z,64.25
2017-07-01T22:40:03.565Z,64.05
2017-07-01T22:45:02.934Z,63.67
2017-07-01T22:50:03.316Z,63.57
2017-07-01T22:55:02.591Z,63.1
2017-07-01T23:00:03.072Z,63.16
2017-07-01T23:05:02.705Z,63.06
2017-07-01T23:10:03.077Z,62.97
2017-07-01T23:15:02.637Z,62.87
2017-07-01T23:20:02.991Z,62.68
2017-07-01T23:25:03.428Z,62.49
2017-07-01T23:30:02.675Z,62.4
2017-07-01T23:35:03.119Z,62.4
2017-07-01T23:40:03.547Z,62.4
2017-07-01T23:45:02.979Z,62.77
2017-07-01T23:50:03.356Z,63.23
2017-07-01T23:55:02.635Z,63.7
